Celebrity Galaxy — 9HJH9 — position and weather

sailwx.info

Track history (hours):
 
Tides and Currents Weather Stations Pressure Air Temp Water Temp Dewpoint Dewpoint Depression Visibility Wind Speed Wind Dir Waves Ship Positions

Celebrity Galaxy

Last reported at 2017-May-25 10:28 UTC. Time now 2017-May-25 10:32 UTC.
Position N 51°20' E 003°12'.

Length 262 m; draft 8.5 m.

Type: Passenger vessel. MMSI: 249051000.

Date/timePositionNaut miles runAvg speedWind from/ knotsBaromVisibWave heightAir tempDewpointWater temp
2017-May-25 10:28N 51°20' E 003°12'0 0.0
2017-May-25 09:58N 51°20' E 003°12'0 0.0
2017-May-25 09:28N 51°20' E 003°12'0 0.0
2017-May-25 08:58N 51°20' E 003°12'0 0.0
2017-May-25 08:28N 51°20' E 003°12'0 0.0
2017-May-25 07:58N 51°20' E 003°12'0 0.0
2017-May-25 07:28N 51°20' E 003°12'0 0.0
2017-May-25 06:58N 51°20' E 003°12'0 0.0
2017-May-25 06:28N 51°20' E 003°12'0 0.0
2017-May-25 05:58N 51°20' E 003°12'0 0.2
2017-May-25 05:31N 51°20' E 003°13'5 9.9
2017-May-25 05:00N 51°24' E 003°07'714.2
2017-May-25 04:30N 51°22' E 002°55'815.2
2017-May-25 04:00N 51°22' E 002°43'611.4
2017-May-25 03:30N 51°22' E 002°34'816.7
2017-May-25 03:00N 51°20' E 002°22'917.8
2017-May-25 02:30N 51°15' E 002°10'918.1
2017-May-25 02:00N 51°10' E 001°57'917.9
2017-May-25 01:30N 51°05' E 001°45'917.1
2017-May-25 01:00N 50°59' E 001°36'918.3
2017-May-25 00:30N 50°52' E 001°27'1118.6
2017-May-24 23:56N 50°42' E 001°20'715.7
2017-May-24 23:30N 50°37' E 001°12'1815.5
2017-May-24 22:19N 50°27' E 000°49'1415.4
2017-May-24 21:25N 50°16' E 000°35'816.0
2017-May-24 20:56N 50°10' E 000°27'716.4
2017-May-24 20:30N 50°05' E 000°20'816.5
2017-May-24 20:00N 49°58' E 000°14'816.8
2017-May-24 19:30N 49°50' E 000°08'917.1
2017-May-24 19:00N 49°43' E 000°02'816.0
2017-May-24 18:30N 49°35' W 000°04'5 9.5
2017-May-24 18:00N 49°31' W 000°03'612.7
2017-May-24 17:30N 49°29' E 000°06'0 0.7
2017-May-24 17:00N 49°29' E 000°07'0 0.0
2017-May-24 16:30N 49°29' E 000°07'0 0.0
2017-May-24 16:00N 49°29' E 000°07'0 0.0
2017-May-24 15:30N 49°29' E 000°07'0 0.0
2017-May-24 14:58N 49°29' E 000°07'0 0.0
2017-May-24 14:28N 49°29' E 000°07'0 0.0
2017-May-24 13:30N 49°29' E 000°07'0 0.0
2017-May-24 13:00N 49°29' E 000°07'0 0.0
2017-May-24 12:29N 49°29' E 000°07'0 0.0
2017-May-24 12:00N 49°29' E 000°07'0 0.0
2017-May-24 11:30N 49°29' E 000°07'0 0.0
2017-May-24 11:00N 49°29' E 000°07'0 0.0
2017-May-24 10:30N 49°29' E 000°07'0 0.0
2017-May-24 10:00N 49°29' E 000°07'0 0.0
2017-May-24 09:30N 49°29' E 000°07'0 0.0
2017-May-24 09:00N 49°29' E 000°07'0 0.0
2017-May-24 08:30N 49°29' E 000°07'0 0.0
2017-May-24 08:00N 49°29' E 000°07'0 0.0
2017-May-24 07:30N 49°29' E 000°07'0 0.0
2017-May-24 07:00N 49°29' E 000°07'0 0.0
2017-May-24 06:30N 49°29' E 000°07'0 0.0
2017-May-24 06:00N 49°29' E 000°07'0 0.0
2017-May-24 05:30N 49°29' E 000°07'0 0.0
2017-May-24 05:00N 49°29' E 000°07'0 0.5
2017-May-24 04:30N 49°29' E 000°06'510.2
2017-May-24 04:00N 49°30' W 000°01'510.1
2017-May-24 03:30N 49°32' W 000°08'612.6
2017-May-24 03:01N 49°33' W 000°18'714.6
2017-May-24 02:30N 49°37' W 000°28'815.1
2017-May-24 02:00N 49°41' W 000°37'815.1
2017-May-24 01:31N 49°45' W 000°47'815.3
2017-May-24 01:00N 49°50' W 000°56'1212.3
2017-May-24 00:04N 49°55' W 001°12'211.2
2017-May-23 23:54N 49°56' W 001°15'511.2
2017-May-23 23:25N 49°57' W 001°23'5813.4
2017-May-23 19:04N 49°50' W 002°53'114.8
2017-May-23 19:00N 49°49' W 002°54'815.0
2017-May-23 18:29N 49°46' W 003°06'714.9
2017-May-23 18:00N 49°42' W 003°15'714.7
2017-May-23 17:30N 49°38' W 003°24'6416.6
2017-May-23 13:38N 48°57' W 004°40'318.7
2017-May-23 13:29N 48°55' W 004°43'918.7
2017-May-23 13:01N 48°50' W 004°53'918.5
2017-May-23 12:30N 48°44' W 005°04'918.7
2017-May-23 12:00N 48°38' W 005°15'1019.5
2017-May-23 11:30N 48°30' W 005°25'1416.4
2017-May-23 10:38N 48°17' W 005°33'3717.8
2017-May-23 08:33N 47°43' W 005°55'5017.4
2017-May-23 05:41N 46°57' W 006°23'318.0
2017-May-23 05:30N 46°54' W 006°25'918.1
2017-May-23 05:00N 46°46' W 006°30'917.8
2017-May-23 04:31N 46°37' W 006°35'917.8
2017-May-23 04:00N 46°29' W 006°40'917.6
2017-May-23 03:30N 46°21' W 006°45'1717.4
2017-May-23 02:32N 46°05' W 006°55'017.7
2017-May-23 02:30N 46°05' W 006°55'361 7.5
2017-May-21 02:38N 40°20' W 009°22'217.4
2017-May-21 02:30N 40°18' W 009°24'917.4
2017-May-21 02:00N 40°11' W 009°29'917.5
2017-May-21 01:30N 40°03' W 009°35'917.4
2017-May-21 01:00N 39°55' W 009°40'917.2
2017-May-21 00:30N 39°47' W 009°44'917.2
2017-May-21 00:00N 39°39' W 009°48'917.3
2017-May-20 23:30N 39°31' W 009°52'816.9
2017-May-20 23:00N 39°23' W 009°54'816.9
2017-May-20 22:30N 39°14' W 009°53'817.0
2017-May-20 22:00N 39°06' W 009°53'816.8
2017-May-20 21:30N 38°58' W 009°53'817.0
2017-May-20 21:00N 38°49' W 009°52'816.7
2017-May-20 20:30N 38°41' W 009°51'815.4
2017-May-20 20:00N 38°37' W 009°42'816.6
2017-May-20 19:30N 38°36' W 009°31'714.4
2017-May-20 19:00N 38°37' W 009°22'714.0
2017-May-20 18:30N 38°41' W 009°15'510.8
2017-May-20 18:00N 38°42' W 009°08'1 1.3
2017-May-20 17:29N 38°43' W 009°07'0 0.0
2017-May-20 16:59N 38°43' W 009°07'0 0.0
2017-May-20 16:29N 38°43' W 009°07'0 0.0
2017-May-20 15:59N 38°43' W 009°07'0 0.0
2017-May-20 15:29N 38°43' W 009°07'0 0.0
2017-May-20 14:59N 38°43' W 009°07'0 0.0
2017-May-20 14:26N 38°43' W 009°07'0 0.0
2017-May-20 13:29N 38°43' W 009°07'0 0.0
2017-May-20 12:59N 38°43' W 009°07'0 0.0
2017-May-20 12:29N 38°43' W 009°07'0 0.0
2017-May-20 11:53N 38°43' W 009°07'0 0.0
2017-May-20 11:29N 38°43' W 009°07'0 0.0
2017-May-20 10:59N 38°43' W 009°07'0 0.0
2017-May-20 10:29N 38°43' W 009°07'0 0.0
2017-May-20 09:59N 38°43' W 009°07'0 0.0
2017-May-20 09:29N 38°43' W 009°07'0 0.0
2017-May-20 08:59N 38°43' W 009°07'0 0.0
2017-May-20 08:29N 38°43' W 009°07'0 0.0
2017-May-20 07:59N 38°43' W 009°07'0 0.7
2017-May-20 07:30N 38°43' W 009°07'4 8.9
2017-May-20 07:00N 38°41' W 009°12'611.4
2017-May-20 06:30N 38°40' W 009°19'815.6
2017-May-20 06:00N 38°33' W 009°25'714.3
2017-May-20 05:30N 38°26' W 009°24'714.5
2017-May-20 05:00N 38°19' W 009°24'714.4
2017-May-20 04:30N 38°11' W 009°23'714.7
2017-May-20 04:00N 38°04' W 009°23'714.3
2017-May-20 03:30N 37°57' W 009°23'714.1
2017-May-20 03:00N 37°50' W 009°23'714.1
2017-May-20 02:30N 37°43' W 009°23'714.1
2017-May-20 02:00N 37°36' W 009°23'814.8
2017-May-20 01:29N 37°28' W 009°22'917.2
2017-May-20 00:59N 37°19' W 009°22'918.3
2017-May-20 00:30N 37°11' W 009°21'1318.4
2017-May-19 23:47N 36°57' W 009°21'517.6
2017-May-19 23:29N 36°52' W 009°19'918.1
2017-May-19 23:00N 36°46' W 009°12'1019.0
2017-May-19 22:27N 36°43' W 008°59'919.2
2017-May-19 21:59N 36°42' W 008°48'1119.2
2017-May-19 21:24N 36°41' W 008°34'718.8
2017-May-19 21:00N 36°41' W 008°25'1019.3
2017-May-19 20:30N 36°40' W 008°13'1019.4
2017-May-19 20:00N 36°40' W 008°01'122 5.8
2017-May-18 23:07N 35°58' W 005°39'214.6
2017-May-18 23:00N 35°58' W 005°37'714.1
2017-May-18 22:30N 36°00' W 005°29'714.1
2017-May-18 22:00N 36°02' W 005°20'815.1
2017-May-18 21:30N 36°04' W 005°11'18815.6
2017-May-18 09:28N 36°50' W 001°25'2518.1
2017-May-18 08:05N 37°04' W 000°59'218.5
2017-May-18 07:58N 37°05' W 000°56'818.4
2017-May-18 07:30N 37°10' W 000°47'918.3
2017-May-18 07:00N 37°15' W 000°38'918.5
2017-May-18 06:30N 37°20' W 000°28'918.4
2017-May-18 06:00N 37°25' W 000°18'918.3
2017-May-18 05:30N 37°30' W 000°09'918.6
2017-May-18 05:00N 37°35' E 000°01'1020.5
2017-May-18 04:30N 37°41' E 000°12'1020.4
2017-May-18 04:00N 37°47' E 000°23'1020.2
2017-May-18 03:30N 37°52' E 000°33'1019.9
2017-May-18 03:00N 37°57' E 000°44'1019.8
2017-May-18 02:29N 38°03' E 000°55'919.7
2017-May-18 02:00N 38°08' E 001°05'1119.4
2017-May-18 01:26N 38°14' E 001°17'919.5
2017-May-18 00:59N 38°19' E 001°26'1019.6
2017-May-18 00:29N 38°25' E 001°36'919.9
2017-May-18 00:00N 38°30' E 001°47'1020.1
2017-May-17 23:30N 38°38' E 001°54'1020.2
2017-May-17 23:00N 38°47' E 002°01'1020.0
2017-May-17 22:30N 38°55' E 002°08'1019.5
2017-May-17 22:00N 39°03' E 002°15'1019.7
2017-May-17 21:30N 39°11' E 002°22'1019.8
2017-May-17 21:00N 39°19' E 002°30'1019.7
2017-May-17 20:30N 39°28' E 002°36'611.1
2017-May-17 20:00N 39°33' E 002°38'0 0.5
2017-May-17 19:30N 39°33' E 002°38'0 0.0
2017-May-17 19:00N 39°33' E 002°38'0 0.0
2017-May-17 18:30N 39°33' E 002°38'0 0.0
2017-May-17 18:00N 39°33' E 002°38'0 0.0
2017-May-17 17:30N 39°33' E 002°38'0 0.0
2017-May-17 17:00N 39°33' E 002°38'0 0.0
2017-May-17 16:30N 39°33' E 002°38'0 0.0
2017-May-17 15:59N 39°33' E 002°38'0 0.0
2017-May-17 15:30N 39°33' E 002°38'0 0.0
2017-May-17 14:58N 39°33' E 002°38'0 0.0
2017-May-17 14:29N 39°33' E 002°38'0 0.0
2017-May-17 13:30N 39°33' E 002°38'0 0.0
2017-May-17 13:00N 39°33' E 002°38'0 0.0
2017-May-17 12:30N 39°33' E 002°38'0 0.0
2017-May-17 11:58N 39°33' E 002°38'0 0.0
2017-May-17 11:28N 39°33' E 002°38'0 0.0
2017-May-17 11:00N 39°33' E 002°38'0 0.0
2017-May-17 10:30N 39°33' E 002°38'0 0.0
2017-May-17 10:00N 39°33' E 002°38'0 0.0
2017-May-17 09:30N 39°33' E 002°38'0 0.0
2017-May-17 09:00N 39°33' E 002°38'0 0.0
2017-May-17 08:30N 39°33' E 002°38'0 0.0
2017-May-17 08:00N 39°33' E 002°38'0 0.0
2017-May-17 07:29N 39°33' E 002°38'0 0.0
2017-May-17 06:59N 39°33' E 002°38'0 0.0
2017-May-17 06:29N 39°33' E 002°38'0 0.0
2017-May-17 05:59N 39°33' E 002°38'0 0.0
2017-May-17 05:29N 39°33' E 002°38'0 0.0
2017-May-17 04:59N 39°33' E 002°38'0 0.0
2017-May-17 04:27N 39°33' E 002°38'0 0.0
2017-May-17 04:00N 39°33' E 002°38'0 0.0
2017-May-17 03:30N 39°33' E 002°38'0 0.0
2017-May-17 03:00N 39°33' E 002°38'0 0.0
2017-May-17 02:30N 39°33' E 002°38'0 0.0
2017-May-17 02:00N 39°33' E 002°38'0 0.0
2017-May-17 01:30N 39°33' E 002°38'1 1.3
2017-May-17 01:00N 39°33' E 002°39'612.4
2017-May-17 00:30N 39°27' E 002°37'815.4
2017-May-17 00:00N 39°20' E 002°34'511.0
2017-May-16 23:30N 39°14' E 002°32'510.8
2017-May-16 23:00N 39°09' E 002°30'611.0
2017-May-16 22:30N 39°04' E 002°28'510.5
2017-May-16 22:00N 38°59' E 002°27'510.1
2017-May-16 21:30N 38°54' E 002°27'5 9.5
2017-May-16 21:00N 38°49' E 002°27'4 8.8
2017-May-16 20:30N 38°49' E 002°21'510.1
2017-May-16 20:00N 38°51' E 002°15'510.0
2017-May-16 19:30N 38°53' E 002°09'510.0
2017-May-16 19:00N 38°54' E 002°03'5 9.9
2017-May-16 18:30N 38°54' E 001°56'5 9.9
2017-May-16 18:00N 38°54' E 001°50'510.0
2017-May-16 17:30N 38°54' E 001°44'510.1
2017-May-16 17:00N 38°54' E 001°37'510.0
2017-May-16 16:30N 38°54' E 001°31'3 0.6
2017-May-16 11:40N 38°54' E 001°27'0 0.0
2017-May-16 11:25N 38°54' E 001°27'0 0.0
2017-May-16 10:55N 38°54' E 001°27'0 0.1
2017-May-16 05:16N 38°54' E 001°27'1 5.1
2017-May-16 05:01N 38°54' E 001°28'5 9.9
2017-May-16 04:30N 38°53' E 001°35'611.8
2017-May-16 04:00N 38°57' E 001°41'713.9
2017-May-16 03:30N 39°03' E 001°43'714.6
2017-May-16 03:00N 39°11' E 001°42'713.0
2017-May-16 02:30N 39°17' E 001°43'5 9.3
2017-May-16 02:00N 39°21' E 001°46'5 9.8
2017-May-16 01:30N 39°26' E 001°47'5 9.8
2017-May-16 01:00N 39°31' E 001°48'5 9.8
2017-May-16 00:29N 39°36' E 001°49'6 9.5
2017-May-15 23:54N 39°41' E 001°50'4 9.5
2017-May-15 23:30N 39°45' E 001°51'5 9.4
2017-May-15 23:00N 39°50' E 001°52'5 9.2
2017-May-15 22:30N 39°54' E 001°52'5 9.4
2017-May-15 22:00N 39°59' E 001°53'714.2
2017-May-15 21:30N 40°06' E 001°53'815.1
2017-May-15 21:00N 40°14' E 001°54'714.8
2017-May-15 20:30N 40°21' E 001°56'714.6
2017-May-15 20:00N 40°28' E 002°00'714.8
2017-May-15 19:30N 40°35' E 002°02'714.9
2017-May-15 19:00N 40°42' E 002°03'714.8
2017-May-15 18:30N 40°49' E 002°05'714.8
2017-May-15 18:00N 40°57' E 002°07'715.2
2017-May-15 17:30N 41°04' E 002°08'815.1
2017-May-15 17:01N 41°12' E 002°10'612.5
2017-May-15 16:30N 41°18' E 002°10'3 6.6
2017-May-15 16:00N 41°21' E 002°10'0 0.7
2017-May-15 15:21N 41°22' E 002°11'0 0.0
2017-May-15 14:57N 41°22' E 002°11'0 0.0
2017-May-15 13:57N 41°22' E 002°11'0 0.0
2017-May-15 13:21N 41°22' E 002°11'0 0.0
2017-May-15 11:33N 41°22' E 002°11'0 0.0
2017-May-15 11:27N 41°22' E 002°11'  
Track history (hours):
 
Tides and Currents Weather Stations Pressure Air Temp Water Temp Dewpoint Dewpoint Depression Visibility Wind Speed Wind Dir Waves Ship Positions

Celebrity Galaxy

Last reported at 2017-May-25 10:28 UTC. Time now 2017-May-25 10:32 UTC.
Position N 51°20' E 003°12'.

Length 262 m; draft 8.5 m.

Type: Passenger vessel. MMSI: 249051000.

Date/timePositionNaut miles runAvg speedWind from/ knotsBaromVisibWave heightAir tempDewpointWater temp
2017-May-25 10:28N 51°20' E 003°12'0 0.0
2017-May-25 09:58N 51°20' E 003°12'0 0.0
2017-May-25 09:28N 51°20' E 003°12'0 0.0
2017-May-25 08:58N 51°20' E 003°12'0 0.0
2017-May-25 08:28N 51°20' E 003°12'0 0.0
2017-May-25 07:58N 51°20' E 003°12'0 0.0
2017-May-25 07:28N 51°20' E 003°12'0 0.0
2017-May-25 06:58N 51°20' E 003°12'0 0.0
2017-May-25 06:28N 51°20' E 003°12'0 0.0
2017-May-25 05:58N 51°20' E 003°12'0 0.2
2017-May-25 05:31N 51°20' E 003°13'5 9.9
2017-May-25 05:00N 51°24' E 003°07'714.2
2017-May-25 04:30N 51°22' E 002°55'815.2
2017-May-25 04:00N 51°22' E 002°43'611.4
2017-May-25 03:30N 51°22' E 002°34'816.7
2017-May-25 03:00N 51°20' E 002°22'917.8
2017-May-25 02:30N 51°15' E 002°10'918.1
2017-May-25 02:00N 51°10' E 001°57'917.9
2017-May-25 01:30N 51°05' E 001°45'917.1
2017-May-25 01:00N 50°59' E 001°36'918.3
2017-May-25 00:30N 50°52' E 001°27'1118.6
2017-May-24 23:56N 50°42' E 001°20'715.7
2017-May-24 23:30N 50°37' E 001°12'1815.5
2017-May-24 22:19N 50°27' E 000°49'1415.4
2017-May-24 21:25N 50°16' E 000°35'816.0
2017-May-24 20:56N 50°10' E 000°27'716.4
2017-May-24 20:30N 50°05' E 000°20'816.5
2017-May-24 20:00N 49°58' E 000°14'816.8
2017-May-24 19:30N 49°50' E 000°08'917.1
2017-May-24 19:00N 49°43' E 000°02'816.0
2017-May-24 18:30N 49°35' W 000°04'5 9.5
2017-May-24 18:00N 49°31' W 000°03'612.7
2017-May-24 17:30N 49°29' E 000°06'0 0.7
2017-May-24 17:00N 49°29' E 000°07'0 0.0
2017-May-24 16:30N 49°29' E 000°07'0 0.0
2017-May-24 16:00N 49°29' E 000°07'0 0.0
2017-May-24 15:30N 49°29' E 000°07'0 0.0
2017-May-24 14:58N 49°29' E 000°07'0 0.0
2017-May-24 14:28N 49°29' E 000°07'0 0.0
2017-May-24 13:30N 49°29' E 000°07'0 0.0
2017-May-24 13:00N 49°29' E 000°07'0 0.0
2017-May-24 12:29N 49°29' E 000°07'0 0.0
2017-May-24 12:00N 49°29' E 000°07'0 0.0
2017-May-24 11:30N 49°29' E 000°07'0 0.0
2017-May-24 11:00N 49°29' E 000°07'0 0.0
2017-May-24 10:30N 49°29' E 000°07'0 0.0
2017-May-24 10:00N 49°29' E 000°07'0 0.0
2017-May-24 09:30N 49°29' E 000°07'0 0.0
2017-May-24 09:00N 49°29' E 000°07'0 0.0
2017-May-24 08:30N 49°29' E 000°07'0 0.0
2017-May-24 08:00N 49°29' E 000°07'0 0.0
2017-May-24 07:30N 49°29' E 000°07'0 0.0
2017-May-24 07:00N 49°29' E 000°07'0 0.0
2017-May-24 06:30N 49°29' E 000°07'0 0.0
2017-May-24 06:00N 49°29' E 000°07'0 0.0
2017-May-24 05:30N 49°29' E 000°07'0 0.0
2017-May-24 05:00N 49°29' E 000°07'0 0.5
2017-May-24 04:30N 49°29' E 000°06'510.2
2017-May-24 04:00N 49°30' W 000°01'510.1
2017-May-24 03:30N 49°32' W 000°08'612.6
2017-May-24 03:01N 49°33' W 000°18'714.6
2017-May-24 02:30N 49°37' W 000°28'815.1
2017-May-24 02:00N 49°41' W 000°37'815.1
2017-May-24 01:31N 49°45' W 000°47'815.3
2017-May-24 01:00N 49°50' W 000°56'1212.3
2017-May-24 00:04N 49°55' W 001°12'211.2
2017-May-23 23:54N 49°56' W 001°15'511.2
2017-May-23 23:25N 49°57' W 001°23'5813.4
2017-May-23 19:04N 49°50' W 002°53'114.8
2017-May-23 19:00N 49°49' W 002°54'815.0
2017-May-23 18:29N 49°46' W 003°06'714.9
2017-May-23 18:00N 49°42' W 003°15'714.7
2017-May-23 17:30N 49°38' W 003°24'6416.6
2017-May-23 13:38N 48°57' W 004°40'318.7
2017-May-23 13:29N 48°55' W 004°43'918.7
2017-May-23 13:01N 48°50' W 004°53'918.5
2017-May-23 12:30N 48°44' W 005°04'918.7
2017-May-23 12:00N 48°38' W 005°15'1019.5
2017-May-23 11:30N 48°30' W 005°25'1416.4
2017-May-23 10:38N 48°17' W 005°33'3717.8
2017-May-23 08:33N 47°43' W 005°55'5017.4
2017-May-23 05:41N 46°57' W 006°23'318.0
2017-May-23 05:30N 46°54' W 006°25'918.1
2017-May-23 05:00N 46°46' W 006°30'917.8
2017-May-23 04:31N 46°37' W 006°35'917.8
2017-May-23 04:00N 46°29' W 006°40'917.6
2017-May-23 03:30N 46°21' W 006°45'1717.4
2017-May-23 02:32N 46°05' W 006°55'017.7
2017-May-23 02:30N 46°05' W 006°55'361 7.5
2017-May-21 02:38N 40°20' W 009°22'217.4
2017-May-21 02:30N 40°18' W 009°24'917.4
2017-May-21 02:00N 40°11' W 009°29'917.5
2017-May-21 01:30N 40°03' W 009°35'917.4
2017-May-21 01:00N 39°55' W 009°40'917.2
2017-May-21 00:30N 39°47' W 009°44'917.2
2017-May-21 00:00N 39°39' W 009°48'917.3
2017-May-20 23:30N 39°31' W 009°52'816.9
2017-May-20 23:00N 39°23' W 009°54'816.9
2017-May-20 22:30N 39°14' W 009°53'817.0
2017-May-20 22:00N 39°06' W 009°53'816.8
2017-May-20 21:30N 38°58' W 009°53'817.0
2017-May-20 21:00N 38°49' W 009°52'816.7
2017-May-20 20:30N 38°41' W 009°51'815.4
2017-May-20 20:00N 38°37' W 009°42'816.6
2017-May-20 19:30N 38°36' W 009°31'714.4
2017-May-20 19:00N 38°37' W 009°22'714.0
2017-May-20 18:30N 38°41' W 009°15'510.8
2017-May-20 18:00N 38°42' W 009°08'1 1.3
2017-May-20 17:29N 38°43' W 009°07'0 0.0
2017-May-20 16:59N 38°43' W 009°07'0 0.0
2017-May-20 16:29N 38°43' W 009°07'0 0.0
2017-May-20 15:59N 38°43' W 009°07'0 0.0
2017-May-20 15:29N 38°43' W 009°07'0 0.0
2017-May-20 14:59N 38°43' W 009°07'0 0.0
2017-May-20 14:26N 38°43' W 009°07'0 0.0
2017-May-20 13:29N 38°43' W 009°07'0 0.0
2017-May-20 12:59N 38°43' W 009°07'0 0.0
2017-May-20 12:29N 38°43' W 009°07'0 0.0
2017-May-20 11:53N 38°43' W 009°07'0 0.0
2017-May-20 11:29N 38°43' W 009°07'0 0.0
2017-May-20 10:59N 38°43' W 009°07'0 0.0
2017-May-20 10:29N 38°43' W 009°07'0 0.0
2017-May-20 09:59N 38°43' W 009°07'0 0.0
2017-May-20 09:29N 38°43' W 009°07'0 0.0
2017-May-20 08:59N 38°43' W 009°07'0 0.0
2017-May-20 08:29N 38°43' W 009°07'0 0.0
2017-May-20 07:59N 38°43' W 009°07'0 0.7
2017-May-20 07:30N 38°43' W 009°07'4 8.9
2017-May-20 07:00N 38°41' W 009°12'611.4
2017-May-20 06:30N 38°40' W 009°19'815.6
2017-May-20 06:00N 38°33' W 009°25'714.3
2017-May-20 05:30N 38°26' W 009°24'714.5
2017-May-20 05:00N 38°19' W 009°24'714.4
2017-May-20 04:30N 38°11' W 009°23'714.7
2017-May-20 04:00N 38°04' W 009°23'714.3
2017-May-20 03:30N 37°57' W 009°23'714.1
2017-May-20 03:00N 37°50' W 009°23'714.1
2017-May-20 02:30N 37°43' W 009°23'714.1
2017-May-20 02:00N 37°36' W 009°23'814.8
2017-May-20 01:29N 37°28' W 009°22'917.2
2017-May-20 00:59N 37°19' W 009°22'918.3
2017-May-20 00:30N 37°11' W 009°21'1318.4
2017-May-19 23:47N 36°57' W 009°21'517.6
2017-May-19 23:29N 36°52' W 009°19'918.1
2017-May-19 23:00N 36°46' W 009°12'1019.0
2017-May-19 22:27N 36°43' W 008°59'919.2
2017-May-19 21:59N 36°42' W 008°48'1119.2
2017-May-19 21:24N 36°41' W 008°34'718.8
2017-May-19 21:00N 36°41' W 008°25'1019.3
2017-May-19 20:30N 36°40' W 008°13'1019.4
2017-May-19 20:00N 36°40' W 008°01'122 5.8
2017-May-18 23:07N 35°58' W 005°39'214.6
2017-May-18 23:00N 35°58' W 005°37'714.1
2017-May-18 22:30N 36°00' W 005°29'714.1
2017-May-18 22:00N 36°02' W 005°20'815.1
2017-May-18 21:30N 36°04' W 005°11'18815.6
2017-May-18 09:28N 36°50' W 001°25'2518.1
2017-May-18 08:05N 37°04' W 000°59'218.5
2017-May-18 07:58N 37°05' W 000°56'818.4
2017-May-18 07:30N 37°10' W 000°47'918.3
2017-May-18 07:00N 37°15' W 000°38'918.5
2017-May-18 06:30N 37°20' W 000°28'918.4
2017-May-18 06:00N 37°25' W 000°18'918.3
2017-May-18 05:30N 37°30' W 000°09'918.6
2017-May-18 05:00N 37°35' E 000°01'1020.5
2017-May-18 04:30N 37°41' E 000°12'1020.4
2017-May-18 04:00N 37°47' E 000°23'1020.2
2017-May-18 03:30N 37°52' E 000°33'1019.9
2017-May-18 03:00N 37°57' E 000°44'1019.8
2017-May-18 02:29N 38°03' E 000°55'919.7
2017-May-18 02:00N 38°08' E 001°05'1119.4
2017-May-18 01:26N 38°14' E 001°17'919.5
2017-May-18 00:59N 38°19' E 001°26'1019.6
2017-May-18 00:29N 38°25' E 001°36'919.9
2017-May-18 00:00N 38°30' E 001°47'1020.1
2017-May-17 23:30N 38°38' E 001°54'1020.2
2017-May-17 23:00N 38°47' E 002°01'1020.0
2017-May-17 22:30N 38°55' E 002°08'1019.5
2017-May-17 22:00N 39°03' E 002°15'1019.7
2017-May-17 21:30N 39°11' E 002°22'1019.8
2017-May-17 21:00N 39°19' E 002°30'1019.7
2017-May-17 20:30N 39°28' E 002°36'611.1
2017-May-17 20:00N 39°33' E 002°38'0 0.5
2017-May-17 19:30N 39°33' E 002°38'0 0.0
2017-May-17 19:00N 39°33' E 002°38'0 0.0
2017-May-17 18:30N 39°33' E 002°38'0 0.0
2017-May-17 18:00N 39°33' E 002°38'0 0.0
2017-May-17 17:30N 39°33' E 002°38'0 0.0
2017-May-17 17:00N 39°33' E 002°38'0 0.0
2017-May-17 16:30N 39°33' E 002°38'0 0.0
2017-May-17 15:59N 39°33' E 002°38'0 0.0
2017-May-17 15:30N 39°33' E 002°38'0 0.0
2017-May-17 14:58N 39°33' E 002°38'0 0.0
2017-May-17 14:29N 39°33' E 002°38'0 0.0
2017-May-17 13:30N 39°33' E 002°38'0 0.0
2017-May-17 13:00N 39°33' E 002°38'0 0.0
2017-May-17 12:30N 39°33' E 002°38'0 0.0
2017-May-17 11:58N 39°33' E 002°38'0 0.0
2017-May-17 11:28N 39°33' E 002°38'0 0.0
2017-May-17 11:00N 39°33' E 002°38'0 0.0
2017-May-17 10:30N 39°33' E 002°38'0 0.0
2017-May-17 10:00N 39°33' E 002°38'0 0.0
2017-May-17 09:30N 39°33' E 002°38'0 0.0
2017-May-17 09:00N 39°33' E 002°38'0 0.0
2017-May-17 08:30N 39°33' E 002°38'0 0.0
2017-May-17 08:00N 39°33' E 002°38'0 0.0
2017-May-17 07:29N 39°33' E 002°38'0 0.0
2017-May-17 06:59N 39°33' E 002°38'0 0.0
2017-May-17 06:29N 39°33' E 002°38'0 0.0
2017-May-17 05:59N 39°33' E 002°38'0 0.0
2017-May-17 05:29N 39°33' E 002°38'0 0.0
2017-May-17 04:59N 39°33' E 002°38'0 0.0
2017-May-17 04:27N 39°33' E 002°38'0 0.0
2017-May-17 04:00N 39°33' E 002°38'0 0.0
2017-May-17 03:30N 39°33' E 002°38'0 0.0
2017-May-17 03:00N 39°33' E 002°38'0 0.0
2017-May-17 02:30N 39°33' E 002°38'0 0.0
2017-May-17 02:00N 39°33' E 002°38'0 0.0
2017-May-17 01:30N 39°33' E 002°38'1 1.3
2017-May-17 01:00N 39°33' E 002°39'612.4
2017-May-17 00:30N 39°27' E 002°37'815.4
2017-May-17 00:00N 39°20' E 002°34'511.0
2017-May-16 23:30N 39°14' E 002°32'510.8
2017-May-16 23:00N 39°09' E 002°30'611.0
2017-May-16 22:30N 39°04' E 002°28'510.5
2017-May-16 22:00N 38°59' E 002°27'510.1
2017-May-16 21:30N 38°54' E 002°27'5 9.5
2017-May-16 21:00N 38°49' E 002°27'4 8.8
2017-May-16 20:30N 38°49' E 002°21'510.1
2017-May-16 20:00N 38°51' E 002°15'510.0
2017-May-16 19:30N 38°53' E 002°09'510.0
2017-May-16 19:00N 38°54' E 002°03'5 9.9
2017-May-16 18:30N 38°54' E 001°56'5 9.9
2017-May-16 18:00N 38°54' E 001°50'510.0
2017-May-16 17:30N 38°54' E 001°44'510.1
2017-May-16 17:00N 38°54' E 001°37'510.0
2017-May-16 16:30N 38°54' E 001°31'3 0.6
2017-May-16 11:40N 38°54' E 001°27'0 0.0
2017-May-16 11:25N 38°54' E 001°27'0 0.0
2017-May-16 10:55N 38°54' E 001°27'0 0.1
2017-May-16 05:16N 38°54' E 001°27'1 5.1
2017-May-16 05:01N 38°54' E 001°28'5 9.9
2017-May-16 04:30N 38°53' E 001°35'611.8
2017-May-16 04:00N 38°57' E 001°41'713.9
2017-May-16 03:30N 39°03' E 001°43'714.6
2017-May-16 03:00N 39°11' E 001°42'713.0
2017-May-16 02:30N 39°17' E 001°43'5 9.3
2017-May-16 02:00N 39°21' E 001°46'5 9.8
2017-May-16 01:30N 39°26' E 001°47'5 9.8
2017-May-16 01:00N 39°31' E 001°48'5 9.8
2017-May-16 00:29N 39°36' E 001°49'6 9.5
2017-May-15 23:54N 39°41' E 001°50'4 9.5
2017-May-15 23:30N 39°45' E 001°51'5 9.4
2017-May-15 23:00N 39°50' E 001°52'5 9.2
2017-May-15 22:30N 39°54' E 001°52'5 9.4
2017-May-15 22:00N 39°59' E 001°53'714.2
2017-May-15 21:30N 40°06' E 001°53'815.1
2017-May-15 21:00N 40°14' E 001°54'714.8
2017-May-15 20:30N 40°21' E 001°56'714.6
2017-May-15 20:00N 40°28' E 002°00'714.8
2017-May-15 19:30N 40°35' E 002°02'714.9
2017-May-15 19:00N 40°42' E 002°03'714.8
2017-May-15 18:30N 40°49' E 002°05'714.8
2017-May-15 18:00N 40°57' E 002°07'715.2
2017-May-15 17:30N 41°04' E 002°08'815.1
2017-May-15 17:01N 41°12' E 002°10'612.5
2017-May-15 16:30N 41°18' E 002°10'3 6.6
2017-May-15 16:00N 41°21' E 002°10'0 0.7
2017-May-15 15:21N 41°22' E 002°11'0 0.0
2017-May-15 14:57N 41°22' E 002°11'0 0.0
2017-May-15 13:57N 41°22' E 002°11'0 0.0
2017-May-15 13:21N 41°22' E 002°11'0 0.0
2017-May-15 11:33N 41°22' E 002°11'0 0.0
2017-May-15 11:27N 41°22' E 002°11'  

Dump ship's entire track history